Time;durP1;ratioP1;P1;durP2;ratioP2;P2;SDS_P1;SDS_P2;PMS_P1;PMS_P2;Temp;Humidity;BMP_temperature;BMP_pressure;BME280_temperature;BME280_humidity;BME280_pressure;Samples;Min_cycle;Max_cycle;Signal;HPM_P1;HPM_P2
2021/01/19 00:00:41;;;;;;;34.60;6.45;;;;;;;;;;5052373;28;20100;-47
2021/01/19 00:03:08;;;;;;;32.40;6.45;;;;;;;;;;5051113;28;20017;-45
2021/01/19 00:05:35;;;;;;;28.60;5.72;;;;;;;;;;5052138;28;20372;-51
2021/01/19 00:08:02;;;;;;;25.70;6.20;;;;;;;;;;5052335;28;20492;-45
2021/01/19 00:10:29;;;;;;;29.20;5.57;;;;;;;;;;5052072;28;20042;-45
2021/01/19 00:12:57;;;;;;;27.70;6.22;;;;;;;;;;5051912;28;20017;-46
2021/01/19 00:15:24;;;;;;;22.52;5.50;;;;;;;;;;5051900;28;20483;-45
2021/01/19 00:17:51;;;;;;;28.63;5.30;;;;;;;;;;5052193;28;20166;-47
2021/01/19 00:20:18;;;;;;;17.65;5.15;;;;;;;;;;5051389;28;20426;-45
2021/01/19 00:22:45;;;;;;;21.25;5.32;;;;;;;;;;5051007;28;20021;-45
2021/01/19 00:25:12;;;;;;;24.10;4.82;;;;;;;;;;5052028;28;20385;-47
2021/01/19 00:27:39;;;;;;;22.33;5.32;;;;;;;;;;5051421;28;20024;-45
2021/01/19 00:30:06;;;;;;;24.58;4.95;;;;;;;;;;5060384;28;20506;-44
2021/01/19 00:32:33;;;;;;;20.80;5.32;;;;;;;;;;5071886;28;20021;-44
2021/01/19 00:35:00;;;;;;;21.00;4.90;;;;;;;;;;5071823;28;20028;-45
2021/01/19 00:37:27;;;;;;;23.15;4.40;;;;;;;;;;5071902;28;20027;-43
2021/01/19 00:39:54;;;;;;;16.50;4.40;;;;;;;;;;5071902;28;20042;-45
2021/01/19 00:42:21;;;;;;;20.98;4.70;;;;;;;;;;5071795;28;20020;-43
2021/01/19 00:44:48;;;;;;;21.40;4.85;;;;;;;;;;5071461;28;20055;-46
2021/01/19 00:47:15;;;;;;;22.38;4.22;;;;;;;;;;5058611;28;20020;-54
2021/01/19 00:49:42;;;;;;;21.48;4.20;;;;;;;;;;5050668;28;20099;-54
2021/01/19 00:52:09;;;;;;;20.48;4.63;;;;;;;;;;5051151;28;20029;-52
2021/01/19 00:54:37;;;;;;;24.30;3.35;;;;;;;;;;5052078;28;20033;-53
2021/01/19 00:57:04;;;;;;;22.00;2.38;;;;;;;;;;5053694;28;20481;-48
2021/01/19 00:59:31;;;;;;;11.90;1.60;;;;;;;;;;5050875;28;20037;-53
2021/01/19 01:01:58;;;;;;;13.38;1.70;;;;;;;;;;5051215;28;20053;-48
2021/01/19 01:04:25;;;;;;;11.48;1.35;;;;;;;;;;5059955;28;20124;-55
2021/01/19 01:06:53;;;;;;;11.10;1.40;;;;;;;;;;5050979;28;20013;-54
2021/01/19 01:09:20;;;;;;;15.55;1.67;;;;;;;;;;5049796;28;20063;-51
2021/01/19 01:11:47;;;;;;;17.52;1.60;;;;;;;;;;5050854;28;20110;-51
2021/01/19 01:14:14;;;;;;;10.80;1.42;;;;;;;;;;5050537;28;20388;-46
2021/01/19 01:16:41;;;;;;;7.00;1.10;;;;;;;;;;5050050;28;20183;-48
2021/01/19 01:19:09;;;;;;;22.13;1.40;;;;;;;;;;5050866;28;20033;-47
2021/01/19 01:21:45;;;;;;;14.75;1.80;;;;;;;;;;5050601;28;20041;-50
2021/01/19 01:24:12;;;;;;;16.23;1.48;;;;;;;;;;5050236;28;20040;-47
2021/01/19 01:26:39;;;;;;;8.85;1.35;;;;;;;;;;5050257;28;20025;-50
2021/01/19 01:29:07;;;;;;;11.38;1.10;;;;;;;;;;5050591;28;20481;-50
2021/01/19 01:31:37;;;;;;;14.95;1.20;;;;;;;;;;5071158;28;20024;-56
2021/01/19 01:34:05;;;;;;;13.25;1.42;;;;;;;;;;5072032;28;20111;-46
2021/01/19 01:36:39;;;;;;;10.88;1.02;;;;;;;;;;5071583;28;20020;-47
2021/01/19 01:39:07;;;;;;;10.75;1.48;;;;;;;;;;5073074;28;20301;-50
2021/01/19 01:41:34;;;;;;;12.35;0.80;;;;;;;;;;5073243;28;20024;-48
2021/01/19 01:44:01;;;;;;;7.75;0.68;;;;;;;;;;5073731;28;20020;-51
2021/01/19 01:46:30;;;;;;;7.38;0.50;;;;;;;;;;5074540;28;20502;-50
2021/01/19 01:48:58;;;;;;;6.40;0.77;;;;;;;;;;5074507;28;20424;-55
2021/01/19 01:51:26;;;;;;;4.25;0.47;;;;;;;;;;5074343;28;20048;-51
2021/01/19 01:53:53;;;;;;;6.70;1.00;;;;;;;;;;5074599;28;20112;-51
2021/01/19 01:56:20;;;;;;;10.35;0.60;;;;;;;;;;5074460;28;20020;-52
2021/01/19 01:58:47;;;;;;;8.30;0.60;;;;;;;;;;5074740;28;20025;-44
2021/01/19 02:01:14;;;;;;;4.22;0.60;;;;;;;;;;5062241;28;20473;-54
2021/01/19 02:03:41;;;;;;;5.50;0.57;;;;;;;;;;5054128;28;20033;-46
2021/01/19 02:06:08;;;;;;;4.40;0.60;;;;;;;;;;5053993;28;20025;-47
2021/01/19 02:08:45;;;;;;;6.00;0.57;;;;;;;;;;5054077;28;20029;-45
2021/01/19 02:11:30;;;;;;;6.45;0.70;;;;;;;;;;5054458;28;20032;-52
2021/01/19 02:13:57;;;;;;;3.95;0.45;;;;;;;;;;5054324;28;20031;-46
2021/01/19 02:16:24;;;;;;;8.07;0.80;;;;;;;;;;5053833;28;20025;-57
2021/01/19 02:18:57;;;;;;;7.82;0.63;;;;;;;;;;5053934;28;20017;-54
2021/01/19 02:21:30;;;;;;;5.00;0.50;;;;;;;;;;5053583;28;20041;-52
2021/01/19 02:24:12;;;;;;;7.32;0.70;;;;;;;;;;5053337;28;20536;-50
2021/01/19 02:26:51;;;;;;;4.47;0.43;;;;;;;;;;5053218;28;20036;-48
2021/01/19 02:29:36;;;;;;;2.88;0.50;;;;;;;;;;5052768;28;20095;-48
2021/01/19 02:32:10;;;;;;;4.15;0.40;;;;;;;;;;5067896;28;20103;-51
2021/01/19 02:34:49;;;;;;;5.00;0.50;;;;;;;;;;5055687;28;20018;-47
2021/01/19 02:37:22;;;;;;;5.03;0.47;;;;;;;;;;5053387;28;20071;-49
2021/01/19 02:39:51;;;;;;;5.07;0.45;;;;;;;;;;5052945;28;20021;-51
2021/01/19 02:42:20;;;;;;;3.40;0.32;;;;;;;;;;5053239;28;20385;-46
2021/01/19 02:44:48;;;;;;;2.45;0.30;;;;;;;;;;5051533;28;20419;-45
2021/01/19 02:47:15;;;;;;;7.13;0.40;;;;;;;;;;5052996;28;20025;-44
2021/01/19 02:49:44;;;;;;;7.38;0.60;;;;;;;;;;5052694;28;21241;-51
2021/01/19 02:52:13;;;;;;;4.38;0.40;;;;;;;;;;5051974;28;20057;-45
2021/01/19 02:54:41;;;;;;;7.97;0.50;;;;;;;;;;5053082;28;20395;-48
2021/01/19 02:57:08;;;;;;;5.38;0.57;;;;;;;;;;5059428;28;20024;-44
2021/01/19 02:59:38;;;;;;;13.38;0.73;;;;;;;;;;5059857;28;20532;-50
2021/01/19 03:02:11;;;;;;;22.60;1.50;;;;;;;;;;5058065;28;20033;-45
2021/01/19 03:04:39;;;;;;;9.32;0.90;;;;;;;;;;5062068;28;20029;-46
2021/01/19 03:07:08;;;;;;;3.95;0.40;;;;;;;;;;5062727;28;20407;-48
2021/01/19 03:09:41;;;;;;;5.32;0.50;;;;;;;;;;5064058;28;20170;-44
2021/01/19 03:12:09;;;;;;;4.50;0.82;;;;;;;;;;5064239;28;20029;-48
2021/01/19 03:14:41;;;;;;;3.97;0.55;;;;;;;;;;5063262;28;20024;-47
2021/01/19 03:17:11;;;;;;;4.38;0.40;;;;;;;;;;5063156;28;20021;-47
2021/01/19 03:19:40;;;;;;;4.32;0.50;;;;;;;;;;5060857;28;20373;-50
2021/01/19 03:22:07;;;;;;;8.40;0.45;;;;;;;;;;5060993;28;20037;-48
2021/01/19 03:24:34;;;;;;;5.30;0.40;;;;;;;;;;5063606;28;20013;-51
2021/01/19 03:27:01;;;;;;;3.22;0.60;;;;;;;;;;5062401;28;20020;-51
2021/01/19 03:29:28;;;;;;;1.05;0.25;;;;;;;;;;5061918;28;20027;-52
2021/01/19 03:31:55;;;;;;;8.65;0.40;;;;;;;;;;5063595;28;20013;-49
2021/01/19 03:34:22;;;;;;;1.58;0.40;;;;;;;;;;5061770;28;20017;-47
2021/01/19 03:36:50;;;;;;;2.95;0.43;;;;;;;;;;5061747;28;20019;-48
2021/01/19 03:39:16;;;;;;;6.07;0.88;;;;;;;;;;5063389;28;20024;-51
2021/01/19 03:41:43;;;;;;;2.08;0.47;;;;;;;;;;5064731;28;20479;-47
2021/01/19 03:44:11;;;;;;;5.53;0.45;;;;;;;;;;5064292;28;20028;-46
2021/01/19 03:46:38;;;;;;;3.40;0.45;;;;;;;;;;5071935;28;20103;-51
2021/01/19 03:49:05;;;;;;;4.13;0.57;;;;;;;;;;5072341;28;20028;-50
2021/01/19 03:51:32;;;;;;;2.53;0.38;;;;;;;;;;5073313;28;20025;-50
2021/01/19 03:53:59;;;;;;;4.10;0.40;;;;;;;;;;5073325;28;20021;-52
2021/01/19 03:56:26;;;;;;;1.88;0.50;;;;;;;;;;5073237;28;20013;-53
2021/01/19 03:58:53;;;;;;;3.28;0.40;;;;;;;;;;5073200;28;20078;-46
2021/01/19 04:01:20;;;;;;;5.93;0.40;;;;;;;;;;5073020;28;20009;-47
2021/01/19 04:03:47;;;;;;;2.08;0.40;;;;;;;;;;5072950;28;20067;-47
2021/01/19 04:06:14;;;;;;;3.55;0.47;;;;;;;;;;5073188;28;20017;-46
2021/01/19 04:08:41;;;;;;;1.73;0.20;;;;;;;;;;5071543;28;20044;-49
2021/01/19 04:11:08;;;;;;;0.88;0.30;;;;;;;;;;5072913;28;20021;-46
2021/01/19 04:13:35;;;;;;;3.05;0.50;;;;;;;;;;5072981;28;20024;-56
2021/01/19 04:16:03;;;;;;;0.85;0.20;;;;;;;;;;5071397;28;20017;-45
2021/01/19 04:18:30;;;;;;;3.03;0.30;;;;;;;;;;5072682;28;20025;-48
2021/01/19 04:20:57;;;;;;;1.75;0.30;;;;;;;;;;5072517;28;20046;-46
2021/01/19 04:23:24;;;;;;;1.27;0.45;;;;;;;;;;5072751;28;20099;-46
2021/01/19 04:25:52;;;;;;;3.25;0.30;;;;;;;;;;5072695;28;20025;-46
2021/01/19 04:28:19;;;;;;;2.58;0.20;;;;;;;;;;5072565;28;20380;-46
2021/01/19 04:30:47;;;;;;;0.60;0.20;;;;;;;;;;5072675;28;20103;-47
2021/01/19 04:33:14;;;;;;;1.67;0.20;;;;;;;;;;5072261;28;20353;-45
2021/01/19 04:35:42;;;;;;;3.60;0.30;;;;;;;;;;5072664;28;20025;-45
2021/01/19 04:38:09;;;;;;;2.08;0.30;;;;;;;;;;5072676;28;20407;-47
2021/01/19 04:40:37;;;;;;;3.15;0.60;;;;;;;;;;5072374;28;20071;-45
2021/01/19 04:43:05;;;;;;;5.03;0.40;;;;;;;;;;5072536;28;20422;-47
2021/01/19 04:45:33;;;;;;;1.70;0.25;;;;;;;;;;5072522;28;20048;-46
2021/01/19 04:48:01;;;;;;;3.20;0.38;;;;;;;;;;5072239;28;20029;-47
2021/01/19 04:50:29;;;;;;;1.20;0.35;;;;;;;;;;5072556;28;20439;-48
2021/01/19 04:52:59;;;;;;;4.50;0.47;;;;;;;;;;5072543;28;20005;-46
2021/01/19 04:55:26;;;;;;;3.63;0.50;;;;;;;;;;5072386;28;20032;-45
2021/01/19 04:58:00;;;;;;;5.72;0.60;;;;;;;;;;5072313;28;20087;-46
2021/01/19 05:00:35;;;;;;;2.20;0.45;;;;;;;;;;5072313;28;20028;-45
2021/01/19 05:03:20;;;;;;;4.80;0.30;;;;;;;;;;5072396;28;20430;-46
2021/01/19 05:06:00;;;;;;;4.20;0.30;;;;;;;;;;5072201;28;20063;-45
2021/01/19 05:08:28;;;;;;;3.05;0.38;;;;;;;;;;5073439;28;20492;-46
2021/01/19 05:10:59;;;;;;;3.38;0.30;;;;;;;;;;5076292;28;20017;-47
2021/01/19 05:13:29;;;;;;;4.47;0.40;;;;;;;;;;5076623;28;20449;-50
2021/01/19 05:15:58;;;;;;;5.45;0.38;;;;;;;;;;5076424;28;20016;-49
2021/01/19 05:18:25;;;;;;;0.77;0.30;;;;;;;;;;5076126;28;20457;-50
2021/01/19 05:20:52;;;;;;;1.08;0.25;;;;;;;;;;5075891;28;20037;-51
2021/01/19 05:23:23;;;;;;;1.27;0.40;;;;;;;;;;5076117;28;20020;-48
2021/01/19 05:25:56;;;;;;;1.85;0.30;;;;;;;;;;5075953;28;20067;-48
2021/01/19 05:28:38;;;;;;;5.15;0.50;;;;;;;;;;5075909;28;20025;-49
2021/01/19 05:31:17;;;;;;;3.40;0.30;;;;;;;;;;5075981;28;20021;-51
2021/01/19 05:33:54;;;;;;;2.40;0.55;;;;;;;;;;5075776;28;20017;-49
2021/01/19 05:36:22;;;;;;;3.35;0.63;;;;;;;;;;5076055;28;20538;-46
2021/01/19 05:38:53;;;;;;;2.30;0.30;;;;;;;;;;5075900;28;20029;-50
2021/01/19 05:41:26;;;;;;;1.08;0.30;;;;;;;;;;5075795;28;20028;-46
2021/01/19 05:43:56;;;;;;;2.67;0.50;;;;;;;;;;5075639;28;20095;-50
2021/01/19 05:46:27;;;;;;;4.05;0.52;;;;;;;;;;5075977;28;20021;-53
2021/01/19 05:48:56;;;;;;;0.98;0.22;;;;;;;;;;5075640;28;20036;-47
2021/01/19 05:51:24;;;;;;;1.83;0.35;;;;;;;;;;5075575;28;20020;-51
2021/01/19 05:53:55;;;;;;;0.55;0.30;;;;;;;;;;5074145;28;21080;-53
2021/01/19 05:56:25;;;;;;;1.88;0.28;;;;;;;;;;5075713;28;20028;-50
2021/01/19 05:58:52;;;;;;;2.83;0.45;;;;;;;;;;5075330;28;20498;-49
2021/01/19 06:01:45;;;;;;;2.58;0.30;;;;;;;;;;5075155;28;20035;-48
2021/01/19 06:04:15;;;;;;;3.47;0.52;;;;;;;;;;5072756;28;20527;-47
2021/01/19 06:06:44;;;;;;;6.05;0.60;;;;;;;;;;5075291;28;20059;-47
2021/01/19 06:09:13;;;;;;;3.70;0.50;;;;;;;;;;5075216;28;20033;-50
2021/01/19 06:11:50;;;;;;;4.18;0.55;;;;;;;;;;5075226;28;20498;-49
2021/01/19 06:14:21;;;;;;;1.77;0.40;;;;;;;;;;5073900;28;20036;-49
2021/01/19 06:16:48;;;;;;;1.95;0.32;;;;;;;;;;5075065;28;20115;-48
2021/01/19 06:19:27;;;;;;;0.75;0.38;;;;;;;;;;5074394;28;20028;-50
2021/01/19 06:21:55;;;;;;;2.00;0.57;;;;;;;;;;5074583;28;20056;-49
2021/01/19 06:24:31;;;;;;;1.75;0.38;;;;;;;;;;5074969;28;20116;-49
2021/01/19 06:26:58;;;;;;;5.65;0.40;;;;;;;;;;5074920;28;20016;-47
2021/01/19 06:29:27;;;;;;;4.80;0.40;;;;;;;;;;5074992;28;20036;-52
2021/01/19 06:31:56;;;;;;;1.45;0.20;;;;;;;;;;5074757;28;20040;-49
2021/01/19 06:34:27;;;;;;;1.13;0.40;;;;;;;;;;5074884;28;20102;-50
2021/01/19 06:36:54;;;;;;;3.55;0.40;;;;;;;;;;5074763;28;20016;-47
2021/01/19 06:39:31;;;;;;;3.20;0.52;;;;;;;;;;5074790;28;20029;-48
2021/01/19 06:42:03;;;;;;;2.10;0.38;;;;;;;;;;5074610;28;20023;-47
2021/01/19 06:44:35;;;;;;;1.42;0.40;;;;;;;;;;5073323;28;20384;-47
2021/01/19 06:47:03;;;;;;;3.38;0.35;;;;;;;;;;5074535;28;20036;-47
2021/01/19 06:49:34;;;;;;;4.25;0.60;;;;;;;;;;5074607;28;20040;-49
2021/01/19 06:52:05;;;;;;;2.40;0.32;;;;;;;;;;5074473;28;20021;-48
2021/01/19 06:54:41;;;;;;;5.80;0.60;;;;;;;;;;5074525;28;20079;-45
2021/01/19 06:57:22;;;;;;;7.78;0.40;;;;;;;;;;5073117;28;20104;-49
2021/01/19 06:59:54;;;;;;;1.90;0.20;;;;;;;;;;5074358;28;20032;-47
2021/01/19 07:02:20;;;;;;;;;;;;;;;;;;5074700;28;20025;-47
2021/01/19 07:04:48;;;;;;;2.00;0.40;;;;;;;;;;5074286;28;20000;-47
2021/01/19 07:07:41;;;;;;;1.85;0.55;;;;;;;;;;5074195;28;20021;-46
2021/01/19 07:10:13;;;;;;;1.35;0.40;;;;;;;;;;5071676;28;20060;-50
2021/01/19 07:12:40;;;;;;;2.72;0.57;;;;;;;;;;5074000;28;20021;-46
2021/01/19 07:15:12;;;;;;;1.05;0.38;;;;;;;;;;5073996;28;20025;-45
2021/01/19 07:18:03;;;;;;;0.88;0.30;;;;;;;;;;5074049;28;20039;-49
2021/01/19 07:20:31;;;;;;;1.02;0.30;;;;;;;;;;5073702;28;20128;-47
2021/01/19 07:23:10;;;;;;;5.82;0.60;;;;;;;;;;5073803;28;20021;-46
2021/01/19 07:25:37;;;;;;;5.15;0.43;;;;;;;;;;5073697;28;20104;-47
2021/01/19 07:28:04;;;;;;;1.40;0.47;;;;;;;;;;5073816;28;20024;-46
2021/01/19 07:30:31;;;;;;;2.95;0.40;;;;;;;;;;5073799;28;20029;-50
2021/01/19 07:32:59;;;;;;;2.45;0.40;;;;;;;;;;5073556;28;20020;-47
2021/01/19 07:35:29;;;;;;;2.70;0.30;;;;;;;;;;5073706;28;20488;-49
2021/01/19 07:37:58;;;;;;;2.25;0.30;;;;;;;;;;5073379;28;20028;-46
2021/01/19 07:40:25;;;;;;;2.88;0.40;;;;;;;;;;5073481;28;20476;-47
2021/01/19 07:42:53;;;;;;;1.42;0.20;;;;;;;;;;5073616;28;20025;-46
2021/01/19 07:45:31;;;;;;;1.00;0.40;;;;;;;;;;5073489;28;20437;-46
2021/01/19 07:48:05;;;;;;;1.13;0.40;;;;;;;;;;5073291;28;20048;-51
2021/01/19 07:50:40;;;;;;;4.30;0.43;;;;;;;;;;5073058;28;20027;-52
2021/01/19 07:53:09;;;;;;;0.95;0.30;;;;;;;;;;5073289;28;20043;-51
2021/01/19 07:55:43;;;;;;;3.75;0.40;;;;;;;;;;5073227;28;20028;-50
2021/01/19 07:58:20;;;;;;;5.20;0.40;;;;;;;;;;5073316;28;20472;-50
2021/01/19 08:00:48;;;;;;;1.75;0.30;;;;;;;;;;5073053;28;20488;-50
2021/01/19 08:03:15;;;;;;;5.07;0.65;;;;;;;;;;5072939;28;20028;-46
2021/01/19 08:05:43;;;;;;;2.17;0.55;;;;;;;;;;5073290;28;20024;-45
2021/01/19 08:08:17;;;;;;;3.85;0.73;;;;;;;;;;5072755;28;20556;-45
2021/01/19 08:10:54;;;;;;;4.90;0.50;;;;;;;;;;5072983;28;20024;-46
2021/01/19 08:13:21;;;;;;;5.72;0.70;;;;;;;;;;5072907;28;20024;-45
2021/01/19 08:16:00;;;;;;;4.20;0.57;;;;;;;;;;5071669;28;20480;-50
2021/01/19 08:18:36;;;;;;;2.67;0.70;;;;;;;;;;5073029;28;20020;-56
2021/01/19 08:21:09;;;;;;;1.58;0.30;;;;;;;;;;5072810;28;20036;-53
2021/01/19 08:23:37;;;;;;;2.67;0.28;;;;;;;;;;5072698;28;20100;-49
2021/01/19 08:26:05;;;;;;;4.85;0.52;;;;;;;;;;5072726;28;20633;-50
2021/01/19 08:28:32;;;;;;;5.28;0.77;;;;;;;;;;5072608;28;20399;-49
2021/01/19 08:30:59;;;;;;;0.80;0.30;;;;;;;;;;5072736;28;20388;-50
2021/01/19 08:33:27;;;;;;;0.88;0.43;;;;;;;;;;5072615;28;20021;-49
2021/01/19 08:35:55;;;;;;;6.70;0.50;;;;;;;;;;5072738;28;20024;-49
2021/01/19 08:38:23;;;;;;;2.13;0.38;;;;;;;;;;5071213;28;20101;-54
2021/01/19 08:40:51;;;;;;;5.15;0.73;;;;;;;;;;5072470;28;20004;-50
2021/01/19 08:43:18;;;;;;;3.72;0.65;;;;;;;;;;5071714;28;20025;-47
2021/01/19 08:45:45;;;;;;;0.60;0.20;;;;;;;;;;5072514;28;20036;-48
2021/01/19 08:48:12;;;;;;;4.13;0.40;;;;;;;;;;5072324;28;20062;-45
2021/01/19 08:50:43;;;;;;;4.45;0.70;;;;;;;;;;5072613;28;20025;-47
2021/01/19 08:53:11;;;;;;;2.92;0.50;;;;;;;;;;5072373;28;20020;-46
2021/01/19 08:55:38;;;;;;;5.72;0.68;;;;;;;;;;5072291;28;20060;-46
2021/01/19 08:58:06;;;;;;;2.08;0.40;;;;;;;;;;5072331;28;20380;-46
2021/01/19 09:00:34;;;;;;;2.20;0.70;;;;;;;;;;5072294;28;20070;-46
2021/01/19 09:03:11;;;;;;;1.52;0.40;;;;;;;;;;5072277;28;20046;-45
2021/01/19 09:05:39;;;;;;;3.13;0.57;;;;;;;;;;5072303;28;20029;-47
2021/01/19 09:08:13;;;;;;;5.18;0.82;;;;;;;;;;5072157;28;20028;-53
2021/01/19 09:10:40;;;;;;;4.32;0.73;;;;;;;;;;5072381;28;20059;-46
2021/01/19 09:13:07;;;;;;;3.22;0.60;;;;;;;;;;5072151;28;20025;-50
2021/01/19 09:15:38;;;;;;;2.03;0.52;;;;;;;;;;5072306;28;20017;-48
2021/01/19 09:18:05;;;;;;;4.65;0.40;;;;;;;;;;5072265;28;20027;-46
2021/01/19 09:20:32;;;;;;;4.03;0.63;;;;;;;;;;5070583;28;20395;-46
2021/01/19 09:23:18;;;;;;;3.25;0.40;;;;;;;;;;5057977;28;20029;-49
2021/01/19 09:25:45;;;;;;;2.80;0.70;;;;;;;;;;5051999;28;20090;-46
2021/01/19 09:28:13;;;;;;;3.15;0.70;;;;;;;;;;5052073;28;20384;-46
2021/01/19 09:30:40;;;;;;;4.65;0.70;;;;;;;;;;5051898;28;20029;-46
2021/01/19 09:33:11;;;;;;;6.47;0.77;;;;;;;;;;5068788;28;20507;-47
2021/01/19 09:35:39;;;;;;;4.88;0.60;;;;;;;;;;5064353;28;20032;-45
2021/01/19 09:38:13;;;;;;;4.53;0.50;;;;;;;;;;5051680;28;20029;-46
2021/01/19 09:40:41;;;;;;;14.43;1.27;;;;;;;;;;5057155;28;20024;-46
2021/01/19 09:43:12;;;;;;;5.47;0.70;;;;;;;;;;5061323;28;20021;-47
2021/01/19 09:45:40;;;;;;;8.75;1.10;;;;;;;;;;5052017;28;20032;-46
2021/01/19 09:48:07;;;;;;;10.05;0.98;;;;;;;;;;5052985;28;20124;-49
2021/01/19 09:50:34;;;;;;;10.60;0.85;;;;;;;;;;5056794;28;20695;-46
2021/01/19 09:53:01;;;;;;;5.45;0.85;;;;;;;;;;5051787;28;20029;-47
2021/01/19 09:55:32;;;;;;;11.82;0.70;;;;;;;;;;5061016;28;20430;-47
2021/01/19 09:58:02;;;;;;;15.20;1.17;;;;;;;;;;5054509;28;20358;-47
2021/01/19 10:00:34;;;;;;;11.13;1.10;;;;;;;;;;5062730;28;20070;-46
2021/01/19 10:03:31;;;;;;;9.35;1.70;;;;;;;;;;5056957;28;20041;-46
2021/01/19 10:06:07;;;;;;;13.27;1.48;;;;;;;;;;5040498;28;20396;-46
2021/01/19 10:08:37;;;;;;;12.77;1.00;;;;;;;;;;5053241;28;20029;-48
2021/01/19 10:11:04;;;;;;;10.88;0.95;;;;;;;;;;5052832;28;20029;-50
2021/01/19 10:13:32;;;;;;;5.00;0.90;;;;;;;;;;5053608;28;20036;-51
2021/01/19 10:16:04;;;;;;;7.90;1.00;;;;;;;;;;5055142;28;20017;-49
2021/01/19 10:18:32;;;;;;;8.07;0.98;;;;;;;;;;5056483;28;20021;-49
2021/01/19 10:20:59;;;;;;;5.50;0.77;;;;;;;;;;5056231;28;20409;-51
2021/01/19 10:23:30;;;;;;;5.25;1.10;;;;;;;;;;5064300;28;20040;-51
2021/01/19 10:26:08;;;;;;;8.85;0.90;;;;;;;;;;5057275;28;20025;-50
2021/01/19 10:28:45;;;;;;;5.07;0.60;;;;;;;;;;5061669;28;20385;-51
2021/01/19 10:31:23;;;;;;;17.40;1.55;;;;;;;;;;5064042;28;20040;-50
2021/01/19 10:34:00;;;;;;;8.00;0.95;;;;;;;;;;5056806;28;20029;-50
2021/01/19 10:36:27;;;;;;;11.23;1.30;;;;;;;;;;5063762;28;20389;-48
2021/01/19 10:38:55;;;;;;;9.65;1.90;;;;;;;;;;5057991;28;20089;-50
2021/01/19 10:41:29;;;;;;;8.93;1.30;;;;;;;;;;5064957;28;20044;-53
2021/01/19 10:43:56;;;;;;;8.75;0.95;;;;;;;;;;5059853;28;20017;-48
2021/01/19 10:46:24;;;;;;;12.68;1.55;;;;;;;;;;5053340;28;20024;-51
2021/01/19 10:49:04;;;;;;;17.98;2.05;;;;;;;;;;5053687;28;20043;-52
2021/01/19 10:51:31;;;;;;;30.33;2.05;;;;;;;;;;5055663;28;20047;-49
2021/01/19 10:54:09;;;;;;;27.80;2.92;;;;;;;;;;5054078;28;20100;-53
2021/01/19 10:56:36;;;;;;;21.73;2.30;;;;;;;;;;5055255;28;20579;-51
2021/01/19 10:59:04;;;;;;;24.92;2.10;;;;;;;;;;5055918;28;20036;-51
2021/01/19 11:01:33;;;;;;;16.85;1.45;;;;;;;;;;5054975;28;20105;-49
2021/01/19 11:04:00;;;;;;;17.52;1.95;;;;;;;;;;5053476;28;20279;-50
2021/01/19 11:06:33;;;;;;;17.48;1.20;;;;;;;;;;5057234;28;20103;-50
2021/01/19 11:09:00;;;;;;;24.77;1.80;;;;;;;;;;5054841;28;20060;-51
2021/01/19 11:11:27;;;;;;;16.25;1.13;;;;;;;;;;5054993;28;20087;-48
2021/01/19 11:13:58;;;;;;;15.02;1.58;;;;;;;;;;5063210;28;20040;-47
2021/01/19 11:16:35;;;;;;;20.20;2.00;;;;;;;;;;5064672;28;20500;-47
2021/01/19 11:19:03;;;;;;;14.05;1.83;;;;;;;;;;5062064;28;20024;-43
2021/01/19 11:21:33;;;;;;;16.67;2.25;;;;;;;;;;5055030;28;20045;-40
2021/01/19 11:24:00;;;;;;;10.98;1.17;;;;;;;;;;5053615;28;20013;-42
2021/01/19 11:26:28;;;;;;;261.38;22.95;;;;;;;;;;5055258;28;20027;-38
2021/01/19 11:28:56;;;;;;;30.30;3.25;;;;;;;;;;5056726;28;20043;-39
2021/01/19 11:31:31;;;;;;;39.85;3.40;;;;;;;;;;5053384;28;20040;-39
2021/01/19 11:34:04;;;;;;;23.48;3.35;;;;;;;;;;5052651;28;20021;-39
2021/01/19 11:36:33;;;;;;;24.20;2.15;;;;;;;;;;5055242;28;20025;-39
2021/01/19 11:39:00;;;;;;;16.65;1.70;;;;;;;;;;5054408;28;20029;-39
2021/01/19 11:41:28;;;;;;;8.82;1.17;;;;;;;;;;5053371;28;20031;-39
2021/01/19 11:43:56;;;;;;;8.63;1.45;;;;;;;;;;5052744;28;20377;-39
2021/01/19 11:46:27;;;;;;;9.98;1.08;;;;;;;;;;5052924;28;20021;-40
2021/01/19 11:48:55;;;;;;;11.43;2.03;;;;;;;;;;5052352;28;20065;-40
2021/01/19 11:51:24;;;;;;;44.70;5.20;;;;;;;;;;5057747;28;20021;-39
2021/01/19 11:53:52;;;;;;;33.00;3.45;;;;;;;;;;5054709;28;20393;-40
2021/01/19 11:56:19;;;;;;;23.48;3.10;;;;;;;;;;5054464;28;20017;-39
2021/01/19 11:58:47;;;;;;;25.98;3.17;;;;;;;;;;5054481;28;20025;-39
2021/01/19 12:01:21;;;;;;;20.15;1.95;;;;;;;;;;5055320;28;20386;-39
2021/01/19 12:03:48;;;;;;;27.42;1.90;;;;;;;;;;5053113;28;20408;-39
2021/01/19 12:06:16;;;;;;;9.15;1.20;;;;;;;;;;5052086;28;20102;-39
2021/01/19 12:08:43;;;;;;;13.30;1.02;;;;;;;;;;5055614;28;20385;-38
2021/01/19 12:11:10;;;;;;;9.65;1.10;;;;;;;;;;5053904;28;20114;-40
2021/01/19 12:13:38;;;;;;;5.97;1.25;;;;;;;;;;5064095;28;20147;-39
2021/01/19 12:16:05;;;;;;;22.70;2.13;;;;;;;;;;5052688;28;20029;-39
2021/01/19 12:18:33;;;;;;;21.55;2.58;;;;;;;;;;5052046;28;20089;-39
2021/01/19 12:21:00;;;;;;;15.23;2.00;;;;;;;;;;5051651;28;20052;-39
2021/01/19 12:23:27;;;;;;;31.35;2.28;;;;;;;;;;5051872;28;20021;-39
2021/01/19 12:25:58;;;;;;;14.57;1.40;;;;;;;;;;5053041;28;20021;-38
2021/01/19 12:28:25;;;;;;;21.98;2.28;;;;;;;;;;5052499;28;20039;-39
2021/01/19 12:30:53;;;;;;;10.30;1.30;;;;;;;;;;5053305;28;20033;-40
2021/01/19 12:33:20;;;;;;;17.30;1.48;;;;;;;;;;5055355;28;20025;-39
2021/01/19 12:35:51;;;;;;;63.75;4.07;;;;;;;;;;5051056;28;20048;-39
2021/01/19 12:38:18;;;;;;;27.30;2.72;;;;;;;;;;5053887;28;20498;-39
2021/01/19 12:40:45;;;;;;;27.17;2.33;;;;;;;;;;5054376;28;20055;-40
2021/01/19 12:43:13;;;;;;;11.80;1.50;;;;;;;;;;5052309;28;20025;-40
2021/01/19 12:45:40;;;;;;;17.95;1.33;;;;;;;;;;5053563;28;20029;-40
2021/01/19 12:48:07;;;;;;;14.10;1.80;;;;;;;;;;5055795;28;20024;-40
2021/01/19 12:50:35;;;;;;;13.55;1.90;;;;;;;;;;5052127;28;20025;-40
2021/01/19 12:53:06;;;;;;;21.98;2.38;;;;;;;;;;5052654;28;20036;-40
2021/01/19 12:55:33;;;;;;;18.58;2.53;;;;;;;;;;5056929;28;20045;-41
2021/01/19 12:58:00;;;;;;;14.27;1.90;;;;;;;;;;5052642;28;20028;-40
2021/01/19 13:00:27;;;;;;;23.08;2.58;;;;;;;;;;5055393;28;20047;-40
2021/01/19 13:02:55;;;;;;;23.70;2.33;;;;;;;;;;5051250;28;20433;-40
2021/01/19 13:05:22;;;;;;;18.17;1.77;;;;;;;;;;5058120;28;20017;-39
2021/01/19 13:07:49;;;;;;;25.73;2.45;;;;;;;;;;5050507;28;20485;-39
2021/01/19 13:10:16;;;;;;;14.02;1.60;;;;;;;;;;5057535;28;20029;-40
2021/01/19 13:12:43;;;;;;;12.38;1.48;;;;;;;;;;5052074;28;20419;-39
2021/01/19 13:15:10;;;;;;;14.93;1.40;;;;;;;;;;5051696;28;20028;-40
2021/01/19 13:17:39;;;;;;;13.23;2.15;;;;;;;;;;5054975;28;20025;-40
2021/01/19 13:20:07;;;;;;;20.98;2.70;;;;;;;;;;5053467;28;20124;-40
2021/01/19 13:22:34;;;;;;;16.23;1.77;;;;;;;;;;5052249;28;20112;-40
2021/01/19 13:25:02;;;;;;;18.30;1.92;;;;;;;;;;5053014;28;20036;-40
2021/01/19 13:27:29;;;;;;;11.57;2.00;;;;;;;;;;5051103;28;20057;-39
2021/01/19 13:29:56;;;;;;;9.93;1.80;;;;;;;;;;5057627;28;20488;-39
2021/01/19 13:32:23;;;;;;;14.27;1.92;;;;;;;;;;5060528;28;20495;-40
2021/01/19 13:34:50;;;;;;;22.80;2.20;;;;;;;;;;5055938;28;20128;-39
2021/01/19 13:37:17;;;;;;;15.85;1.80;;;;;;;;;;5063123;28;20460;-39
2021/01/19 13:39:45;;;;;;;16.00;1.90;;;;;;;;;;5058427;28;20045;-38
2021/01/19 13:42:12;;;;;;;13.45;1.83;;;;;;;;;;5057128;28;20029;-39
2021/01/19 13:44:39;;;;;;;17.63;1.95;;;;;;;;;;5059225;28;20573;-40
2021/01/19 13:47:06;;;;;;;17.35;2.08;;;;;;;;;;5059265;28;20029;-41
2021/01/19 13:49:33;;;;;;;15.77;1.73;;;;;;;;;;5063605;28;20419;-39
2021/01/19 13:52:00;;;;;;;19.70;2.72;;;;;;;;;;5069701;28;20020;-40
2021/01/19 13:54:28;;;;;;;21.83;2.65;;;;;;;;;;5062492;28;20024;-40
2021/01/19 13:56:57;;;;;;;21.10;2.50;;;;;;;;;;5066465;28;20472;-39
2021/01/19 13:59:25;;;;;;;16.55;2.72;;;;;;;;;;5066685;28;20035;-40
2021/01/19 14:01:52;;;;;;;15.05;2.08;;;;;;;;;;5061063;28;20020;-41
2021/01/19 14:04:19;;;;;;;19.42;2.95;;;;;;;;;;5062889;28;20153;-40
2021/01/19 14:06:46;;;;;;;11.68;1.65;;;;;;;;;;5068087;28;20036;-40
2021/01/19 14:09:14;;;;;;;12.50;2.00;;;;;;;;;;5066241;28;20074;-40
2021/01/19 14:11:41;;;;;;;11.80;1.73;;;;;;;;;;5060412;28;20074;-39
2021/01/19 14:14:20;;;;;;;13.45;1.83;;;;;;;;;;5057589;28;20132;-40
2021/01/19 14:16:50;;;;;;;19.90;2.30;;;;;;;;;;5059180;28;20131;-40
2021/01/19 14:19:17;;;;;;;22.05;2.03;;;;;;;;;;5064622;28;20025;-39
2021/01/19 14:21:44;;;;;;;36.70;3.95;;;;;;;;;;5059608;28;20045;-41
2021/01/19 14:24:12;;;;;;;32.00;2.65;;;;;;;;;;5065180;28;20051;-40
2021/01/19 14:26:39;;;;;;;31.02;3.35;;;;;;;;;;5061108;28;20021;-40
2021/01/19 14:29:06;;;;;;;25.15;2.97;;;;;;;;;;5063522;28;20067;-40
2021/01/19 14:31:34;;;;;;;21.85;2.13;;;;;;;;;;5056925;28;20021;-40
2021/01/19 14:34:01;;;;;;;19.92;2.53;;;;;;;;;;5056613;28;20024;-40
2021/01/19 14:36:29;;;;;;;22.80;3.03;;;;;;;;;;5069639;28;20100;-39
2021/01/19 14:38:56;;;;;;;18.65;2.38;;;;;;;;;;5060052;28;20037;-39
2021/01/19 14:41:24;;;;;;;27.88;2.70;;;;;;;;;;5062753;28;20019;-39
2021/01/19 14:43:51;;;;;;;19.88;2.28;;;;;;;;;;5056619;28;20527;-39
2021/01/19 14:49:21;;;;;;;24.90;2.30;;;;;;;;;;5056678;28;20252;-40
2021/01/19 14:51:48;;;;;;;32.25;2.33;;;;;;;;;;5055250;28;20059;-40
2021/01/19 14:54:17;;;;;;;24.92;2.67;;;;;;;;;;5058082;28;20163;-40